Time;durP1;ratioP1;P1;durP2;ratioP2;P2;SDS_P1;SDS_P2;PMS_P1;PMS_P2;Temp;Humidity;BMP_temperature;BMP_pressure;BME280_temperature;BME280_humidity;BME280_pressure;Samples;Min_cycle;Max_cycle;Signal;HPM_P1;HPM_P2
2023/05/19 00:01:30;;;;;;;;;;;5.60;99.90;;;4.11;100.00;102531.28;4966781;28;19977;-75
2023/05/19 00:03:57;;;;;;;;;;;5.60;99.90;;;3.90;100.00;102527.59;4998655;28;19949;-74
2023/05/19 00:06:30;;;;;;;;;;;5.50;99.90;;;3.68;100.00;102528.25;4978612;28;19979;-74
2023/05/19 00:09:06;;;;;;;;;;;5.30;99.90;;;3.49;100.00;102525.41;4994000;28;20000;-74
2023/05/19 00:11:35;;;;;;;;;;;5.10;99.90;;;3.37;98.40;102527.91;4975973;28;19921;-74
2023/05/19 00:14:02;;;;;;;;;;;5.00;99.90;;;3.32;97.64;102524.34;4994948;28;19921;-74
2023/05/19 00:16:29;;;;;;;;;;;4.90;99.90;;;3.33;97.93;102520.91;4993103;28;20459;-74
2023/05/19 00:18:58;;;;;;;;;;;4.80;99.90;;;3.35;97.78;102514.00;4995170;28;19921;-74
2023/05/19 00:21:25;;;;;;;;;;;4.80;99.90;;;3.40;98.47;102527.94;4984999;28;19914;-74
2023/05/19 00:23:51;;;;;;;;;;;4.80;99.90;;;3.47;100.00;102516.72;4977691;28;19917;-74
2023/05/19 00:26:16;;;;;;;;;;;4.90;99.90;;;3.61;100.00;102522.09;4993233;28;19929;-74
2023/05/19 00:28:42;;;;;;;;;;;5.00;99.90;;;3.72;100.00;102517.00;4997538;28;20013;-75
2023/05/19 00:31:08;;;;;;;;;;;5.10;99.90;;;3.74;100.00;102510.06;5010210;28;19917;-74
2023/05/19 00:33:34;;;;;;;;;;;5.10;99.90;;;3.67;100.00;102508.25;4993138;28;19917;-74
2023/05/19 00:36:04;;;;;;;;;;;5.10;99.90;;;3.67;100.00;102509.16;4987733;28;20300;-74
2023/05/19 00:38:31;;;;;;;;;;;5.10;99.90;;;3.74;100.00;102510.06;4967792;28;20565;-74
2023/05/19 00:40:57;;;;;;;;;;;5.10;99.90;;;3.83;100.00;102507.56;4994502;28;19924;-74
2023/05/19 00:43:23;;;;;;;;;;;5.20;99.90;;;3.93;100.00;102505.03;4981691;28;20286;-74
2023/05/19 00:45:49;;;;;;;;;;;5.30;99.90;;;3.97;100.00;102514.63;4991671;28;19921;-76
2023/05/19 00:48:15;;;;;;;;;;;5.40;99.90;;;4.00;100.00;102506.84;4993562;28;19921;-74
2023/05/19 00:50:41;;;;;;;;;;;5.40;99.90;;;3.99;100.00;102505.97;4991465;28;19921;-74
2023/05/19 00:53:07;;;;;;;;;;;5.40;99.90;;;4.01;100.00;102505.97;4975988;28;19914;-74
2023/05/19 00:55:35;;;;;;;;;;;5.40;99.90;;;4.00;100.00;102504.25;4993483;28;19924;-74
2023/05/19 00:58:01;;;;;;;;;;;5.40;99.90;;;3.94;100.00;102498.97;4994822;28;20374;-74
2023/05/19 01:00:29;;;;;;;;;;;5.40;99.90;;;3.92;100.00;102503.31;4993018;28;19929;-74
2023/05/19 01:02:55;;;;;;;;;;;5.40;99.90;;;3.85;100.00;102503.22;4990802;28;19968;-76
2023/05/19 01:05:21;;;;;;;;;;;5.30;99.90;;;3.84;100.00;102495.41;4991896;28;19914;-74
2023/05/19 01:07:52;;;;;;;;;;;5.30;99.90;;;3.76;100.00;102492.72;4995405;28;19923;-74
2023/05/19 01:10:21;;;;;;;;;;;5.30;99.90;;;3.63;100.00;102494.34;4991886;28;19948;-74
2023/05/19 01:12:47;;;;;;;;;;;5.20;99.90;;;3.51;100.00;102490.72;4989690;28;19922;-74
2023/05/19 01:15:14;;;;;;;;;;;7.20;99.90;;;3.37;100.00;102485.34;4991278;28;19929;-74
2023/05/19 01:18:00;;;;;;;;;;;4.90;99.90;;;3.19;100.00;102488.63;4995828;28;19928;-73
2023/05/19 01:20:35;;;;;;;;;;;4.80;99.90;;;3.17;100.00;102487.72;4993145;28;19924;-73
2023/05/19 01:23:13;;;;;;;;;;;4.70;99.90;;;3.14;100.00;102485.97;4983538;28;19917;-74
2023/05/19 01:26:07;;;;;;;;;;;4.70;99.90;;;3.14;100.00;102490.28;4988577;28;19913;-74
2023/05/19 01:29:10;;;;;;;;;;;4.60;99.90;;;3.18;100.00;102490.34;4992725;28;20126;-74
2023/05/19 01:31:39;;;;;;;;;;;4.60;99.90;;;3.22;100.00;102491.28;4992734;28;19921;-74
2023/05/19 01:34:05;;;;;;;;;;;4.70;99.90;;;3.19;100.00;102496.41;4980345;28;22090;-74
2023/05/19 01:36:32;;;;;;;;;;;4.70;99.90;;;3.15;100.00;102500.69;4979269;28;19968;-74
2023/05/19 01:38:59;;;;;;;;;;;6.30;99.90;;;3.06;100.00;102498.84;4978028;28;19972;-74
2023/05/19 01:41:28;;;;;;;;;;;4.60;99.90;;;2.99;100.00;102494.44;4991880;28;20483;-74
2023/05/19 01:43:54;;;;;;;;;;;4.50;99.90;;;2.93;100.00;102494.34;4991318;28;19929;-74
2023/05/19 01:46:20;;;;;;;;;;;4.50;99.90;;;2.91;100.00;102492.59;4981061;28;19925;-73
2023/05/19 01:48:47;;;;;;;;;;;4.50;99.90;;;2.89;99.43;102500.38;4983440;28;19920;-74
2023/05/19 01:51:12;;;;;;;;;;;4.40;99.90;;;2.86;99.33;102489.94;4993137;28;20286;-74
2023/05/19 01:53:38;;;;;;;;;;;4.40;99.90;;;2.85;99.23;102491.66;4991232;28;19924;-73
2023/05/19 01:56:04;;;;;;;;;;;4.40;99.90;;;2.83;99.09;102502.88;4984090;28;20341;-74
2023/05/19 01:58:51;;;;;;;;;;;4.30;99.90;;;2.79;98.92;102490.72;4991523;28;19928;-74
2023/05/19 02:01:25;;;;;;;;;;;4.30;99.90;;;2.78;99.46;102505.41;4989175;28;19918;-74
2023/05/19 02:04:18;;;;;;;;;;;4.30;99.90;;;2.74;99.64;102489.75;4993578;28;20691;-73
2023/05/19 02:07:00;;;;;;;;;;;4.30;99.90;;;2.72;98.96;102505.38;4991666;28;20492;-73
2023/05/19 02:09:26;;;;;;;;;;;4.20;99.90;;;2.65;99.39;102499.16;4991386;28;19924;-74
2023/05/19 02:11:59;;;;;;;;;;;4.20;99.90;;;2.59;99.06;102499.09;4992344;28;19921;-73
2023/05/19 02:14:45;;;;;;;;;;;4.20;99.90;;;2.54;98.58;102495.53;4991988;28;20366;-74
2023/05/19 02:17:14;;;;;;;;;;;4.10;99.90;;;2.51;98.60;102495.50;4994202;28;19918;-73
2023/05/19 02:19:41;;;;;;;;;;;4.10;99.90;;;2.48;98.16;102485.03;4971878;28;20008;-74
2023/05/19 02:22:07;;;;;;;;;;;4.00;99.90;;;2.48;98.48;102485.03;4977126;28;19925;-74
2023/05/19 02:24:33;;;;;;;;;;;4.00;99.90;;;2.51;98.52;102484.25;4989482;28;19929;-74
2023/05/19 02:26:58;;;;;;;;;;;4.00;99.90;;;2.51;99.19;102485.09;4993890;28;19913;-73
2023/05/19 02:29:24;;;;;;;;;;;4.00;99.90;;;2.50;99.42;102488.53;4992697;28;20765;-74
2023/05/19 02:31:50;;;;;;;;;;;4.00;99.90;;;2.48;99.54;102485.03;4986870;28;19914;-73
2023/05/19 02:34:16;;;;;;;;;;;4.00;99.90;;;2.47;99.36;102489.38;5012549;28;20392;-74
2023/05/19 02:36:41;;;;;;;;;;;4.00;99.90;;;2.43;99.58;102490.19;4994426;28;19917;-73
2023/05/19 02:39:09;;;;;;;;;;;4.00;99.90;;;2.42;99.70;102485.84;4994430;28;19917;-74
2023/05/19 02:41:36;;;;;;;;;;;3.90;99.90;;;2.41;99.49;102484.06;4993151;28;19921;-73
2023/05/19 02:44:01;;;;;;;;;;;3.90;99.90;;;2.42;99.14;102484.97;4980533;28;20516;-73
2023/05/19 02:46:27;;;;;;;;;;;3.90;99.90;;;2.45;98.92;102485.00;4989303;28;19917;-73
2023/05/19 02:48:53;;;;;;;;;;;3.90;99.90;;;2.48;98.96;102490.25;4988201;28;19921;-73
2023/05/19 02:51:19;;;;;;;;;;;4.00;99.90;;;2.51;99.13;102484.25;5004165;28;19917;-73
2023/05/19 02:53:44;;;;;;;;;;;3.90;99.90;;;2.54;99.00;102485.13;4992118;28;19913;-73
2023/05/19 02:56:10;;;;;;;;;;;4.00;99.90;;;2.56;99.30;102482.56;4992835;28;19940;-74
2023/05/19 02:58:36;;;;;;;;;;;4.00;99.90;;;2.58;99.40;102480.88;4989163;28;19917;-74
2023/05/19 03:01:01;;;;;;;;;;;4.00;99.90;;;2.61;99.22;102483.50;4992345;28;20402;-73
2023/05/19 03:03:27;;;;;;;;;;;4.00;99.90;;;2.62;99.24;102488.72;4992608;28;19921;-73
2023/05/19 03:05:53;;;;;;;;;;;4.10;99.90;;;2.63;99.19;102485.25;4994738;28;20387;-74
2023/05/19 03:08:19;;;;;;;;;;;4.10;99.90;;;2.65;98.83;102480.97;4963915;28;19928;-73
2023/05/19 03:10:45;;;;;;;;;;;4.10;99.90;;;2.67;98.93;102483.59;4991227;28;20076;-73
2023/05/19 03:13:11;;;;;;;;;;;4.10;99.90;;;2.66;98.62;102481.84;4993995;28;19925;-75
2023/05/19 03:15:37;;;;;;;;;;;4.10;99.90;;;2.69;98.55;102484.50;4983621;28;20942;-73
2023/05/19 03:18:03;;;;;;;;;;;4.10;99.90;;;2.71;98.28;102482.78;4984011;28;19926;-73
2023/05/19 03:20:29;;;;;;;;;;;4.10;99.90;;;2.72;98.14;102484.56;4983261;28;19921;-73
2023/05/19 03:22:55;;;;;;;;;;;4.10;99.90;;;2.76;98.29;102486.31;4987296;28;19918;-74
2023/05/19 03:25:21;;;;;;;;;;;4.20;99.90;;;2.83;97.83;102493.38;4993522;28;19914;-73
2023/05/19 03:27:47;;;;;;;;;;;4.20;99.90;;;2.89;97.70;102489.97;4997288;28;19921;-73
2023/05/19 03:30:13;;;;;;;;;;;4.20;99.90;;;3.01;98.46;102484.06;4995324;28;19975;-73
2023/05/19 03:32:39;;;;;;;;;;;4.30;99.90;;;3.18;98.49;102498.16;4991203;28;19925;-73
2023/05/19 03:35:05;;;;;;;;;;;4.50;99.90;;;3.35;99.29;102497.47;4984884;28;20471;-73
2023/05/19 03:37:33;;;;;;;;;;;4.60;99.90;;;3.54;100.00;102498.56;4997358;28;19936;-74
2023/05/19 03:39:59;;;;;;;;;;;4.70;99.90;;;3.75;100.00;102508.34;4996824;28;19917;-74
2023/05/19 03:42:25;;;;;;;;;;;4.90;99.90;;;3.96;100.00;102510.28;4994861;28;19927;-73
2023/05/19 03:44:51;;;;;;;;;;;5.10;99.90;;;4.14;100.00;102513.03;4994036;28;19913;-73
2023/05/19 03:47:16;;;;;;;;;;;5.30;99.90;;;4.29;100.00;102512.31;4993827;28;19913;-73
2023/05/19 03:49:42;;;;;;;;;;;5.40;99.90;;;4.38;100.00;102506.28;4996197;28;19921;-73
2023/05/19 03:52:08;;;;;;;;;;;5.60;99.90;;;4.52;100.00;102515.97;4998939;28;19926;-73
2023/05/19 03:54:34;;;;;;;;;;;5.70;99.90;;;5.70;99.18;102526.13;5001821;28;19934;-73
2023/05/19 03:57:01;;;;;;;;;;;6.80;99.90;;;7.35;97.99;102541.69;5005688;28;19918;-73
2023/05/19 03:59:27;;;;;;;;;;;8.20;99.90;;;9.14;94.71;102549.09;4994628;28;20418;-73
2023/05/19 04:01:53;;;;;;;;;;;9.80;99.90;;;10.85;88.25;102564.09;4995519;28;19939;-73
2023/05/19 04:04:18;;;;;;;;;;;11.80;99.90;;;12.46;79.28;102572.97;4996490;28;20004;-74
2023/05/19 04:06:44;;;;;;;;;;;12.70;99.90;;;13.94;72.26;102574.13;5008661;28;20013;-74
2023/05/19 04:09:12;;;;;;;;;;;14.00;99.90;;;15.30;66.18;102576.59;4989401;28;19979;-73
2023/05/19 04:11:39;;;;;;;;;;;15.20;99.90;;;16.41;61.75;102588.19;4997635;28;20047;-74
2023/05/19 04:14:05;;;;;;;;;;;16.20;99.90;;;16.02;60.15;102580.06;4993371;28;19924;-74
2023/05/19 04:16:31;;;;;;;;;;;16.20;99.90;;;16.19;59.27;102583.78;4993136;28;20286;-74
2023/05/19 04:18:57;;;;;;;;;;;16.40;99.90;;;17.26;58.06;102596.09;4986717;28;20032;-74
2023/05/19 04:21:22;;;;;;;;;;;17.00;99.90;;;18.57;55.73;102614.72;4993733;28;20371;-74
2023/05/19 04:23:48;;;;;;;;;;;17.90;99.90;;;19.85;53.14;102624.94;4993321;28;20348;-74
2023/05/19 04:26:14;;;;;;;;;;;18.90;99.90;;;21.07;50.72;102628.59;4995222;28;19920;-74
2023/05/19 04:28:41;;;;;;;;;;;19.80;99.90;;;21.90;48.18;102632.34;4993651;28;19921;-74
2023/05/19 04:31:11;;;;;;;;;;;20.70;99.60;;;23.03;47.10;102649.91;4988430;28;20051;-74
2023/05/19 04:33:38;;;;;;;;;;;21.50;99.30;;;24.18;46.00;102667.75;4973579;28;20951;-74
2023/05/19 04:36:07;;;;;;;;;;;22.30;98.50;;;25.47;44.49;102668.69;4993242;28;19913;-74
2023/05/19 04:38:33;;;;;;;;;;;22.90;97.70;;;26.69;42.53;102678.53;4977368;28;19949;-74
2023/05/19 04:41:00;;;;;;;;;;;23.60;97.20;;;27.23;40.87;102683.91;4984628;28;19927;-75
2023/05/19 04:43:27;;;;;;;;;;;24.50;94.00;;;27.13;39.10;102678.44;4983341;28;19921;-74
2023/05/19 04:45:53;;;;;;;;;;;24.50;94.30;;;26.86;39.03;102681.66;4985807;28;20294;-74
2023/05/19 04:48:22;;;;;;;;;;;24.60;93.30;;;25.48;40.45;102670.38;4984476;28;20370;-75
2023/05/19 04:50:50;;;;;;;;;;;24.40;92.60;;;26.20;40.06;102685.34;4991835;28;19921;-74
2023/05/19 04:53:16;;;;;;;;;;;24.50;93.00;;;26.70;38.04;102701.03;4991469;28;19914;-74
2023/05/19 04:55:43;;;;;;;;;;;24.40;92.70;;;26.99;38.72;102706.63;5009603;28;19924;-75
2023/05/19 04:58:09;;;;;;;;;;;24.40;93.50;;;27.08;37.76;102703.13;4995672;28;19929;-74
2023/05/19 05:00:36;;;;;;;;;;;24.50;92.90;;;27.09;37.65;102707.56;4994238;28;20313;-74
2023/05/19 05:03:05;;;;;;;;;;;24.60;92.90;;;26.78;37.65;102712.03;4993175;28;19921;-75
2023/05/19 05:05:31;;;;;;;;;;;24.70;92.50;;;26.83;37.51;102714.34;4991653;28;19929;-75
2023/05/19 05:07:57;;;;;;;;;;;24.60;92.30;;;26.85;38.02;102707.84;4959781;28;20437;-74
2023/05/19 05:10:23;;;;;;;;;;;24.70;92.40;;;26.82;38.63;102718.88;4988875;28;20488;-74
2023/05/19 05:12:49;;;;;;;;;;;24.80;92.90;;;26.70;38.17;102711.84;4990242;28;19929;-75
2023/05/19 05:15:16;;;;;;;;;;;24.70;92.00;;;28.00;38.23;102724.88;4993902;28;19921;-74
2023/05/19 05:17:42;;;;;;;;;;;24.90;94.00;;;28.26;37.78;102737.06;4990908;28;19921;-74
2023/05/19 05:20:10;;;;;;;;;;;25.30;93.80;;;27.93;37.21;102736.41;5004589;28;19996;-74
2023/05/19 05:22:37;;;;;;;;;;;25.30;93.20;;;27.88;36.49;102736.78;4976614;28;19976;-75
2023/05/19 05:25:04;;;;;;;;;;;25.50;91.40;;;26.15;37.66;102722.63;4977791;28;19914;-75
2023/05/19 05:27:30;;;;;;;;;;;25.50;90.90;;;26.15;37.39;102722.63;4993535;28;20004;-74
2023/05/19 05:29:56;;;;;;;;;;;24.80;90.40;;;26.70;36.48;102728.06;4995902;28;20003;-75
2023/05/19 05:32:22;;;;;;;;;;;24.70;90.80;;;26.09;38.22;102728.53;4990775;28;19945;-75
2023/05/19 05:34:48;;;;;;;;;;;24.30;91.50;;;26.37;37.40;102729.81;4994854;28;19914;-75
2023/05/19 05:37:14;;;;;;;;;;;24.20;91.50;;;27.80;36.56;102753.69;4991260;28;20024;-75
2023/05/19 05:39:40;;;;;;;;;;;24.60;92.30;;;27.92;34.94;102757.19;4973734;28;19920;-74
2023/05/19 05:42:07;;;;;;;;;;;25.00;91.10;;;27.03;35.96;102742.38;4990208;28;20596;-74
2023/05/19 05:44:34;;;;;;;;;;;24.80;90.80;;;28.82;34.96;102772.50;4996783;28;20343;-74
2023/05/19 05:47:01;;;;;;;;;;;25.50;91.20;;;29.55;34.82;102780.16;4995467;28;19921;-75
2023/05/19 05:49:27;;;;;;;;;;;26.00;91.50;;;29.01;33.09;102770.81;4991495;28;19922;-74
2023/05/19 05:51:53;;;;;;;;;;;26.40;87.90;;;29.45;33.12;102779.31;4990539;28;20059;-75
2023/05/19 05:54:21;;;;;;;;;;;26.80;89.30;;;28.60;33.08;102772.78;4991073;28;19913;-75
2023/05/19 05:56:47;;;;;;;;;;;26.50;85.70;;;29.39;33.54;102782.63;4993964;28;19925;-74
2023/05/19 05:59:16;;;;;;;;;;;26.80;88.60;;;28.00;32.81;102764.63;4995357;28;20349;-75
2023/05/19 06:01:42;;;;;;;;;;;26.70;83.60;;;29.49;32.55;102785.34;4991905;28;20334;-74
2023/05/19 06:04:09;;;;;;;;;;;26.80;85.20;;;30.82;32.26;102801.28;4991257;28;20000;-74
2023/05/19 06:06:36;;;;;;;;;;;27.40;88.40;;;30.10;31.98;102795.69;4993645;28;20326;-74
2023/05/19 06:09:02;;;;;;;;;;;27.90;84.40;;;30.95;31.98;102800.91;4992407;28;19917;-75
2023/05/19 06:11:28;;;;;;;;;;;28.50;84.60;;;30.58;30.98;102793.72;4986008;28;19920;-75
2023/05/19 06:13:54;;;;;;;;;;;28.80;81.60;;;30.13;30.24;102802.69;4983186;28;19913;-75
2023/05/19 06:16:20;;;;;;;;;;;28.80;79.60;;;30.92;31.62;102809.41;4989937;28;19920;-75
2023/05/19 06:18:45;;;;;;;;;;;29.20;82.30;;;30.10;30.17;102808.44;4992225;28;19923;-75
2023/05/19 06:21:12;;;;;;;;;;;29.30;76.10;;;30.11;32.15;102802.84;4993734;28;19976;-74
2023/05/19 06:23:41;;;;;;;;;;;28.60;73.90;;;27.40;31.50;102767.16;4993604;28;19917;-75
2023/05/19 06:26:06;;;;;;;;;;;28.30;74.50;;;28.01;31.93;102772.63;4990380;28;19929;-73
2023/05/19 06:28:33;;;;;;;;;;;28.00;77.60;;;26.87;31.74;102759.03;4983586;28;19920;-73
2023/05/19 06:30:58;;;;;;;;;;;27.30;75.50;;;26.27;33.40;102755.88;4974341;28;19922;-73
2023/05/19 06:33:25;;;;;;;;;;;26.70;77.00;;;25.11;34.10;102745.19;4984339;28;19924;-73
2023/05/19 06:35:50;;;;;;;;;;;25.80;77.40;;;25.86;34.21;102746.56;4994480;28;20286;-73
2023/05/19 06:38:16;;;;;;;;;;;25.80;80.60;;;26.14;32.25;102748.78;4973615;28;19925;-73
2023/05/19 06:40:42;;;;;;;;;;;25.80;77.00;;;25.91;32.37;102747.94;4989576;28;19922;-75
2023/05/19 06:43:08;;;;;;;;;;;26.00;79.70;;;26.52;33.67;102747.47;4989257;28;19921;-75
2023/05/19 06:45:35;;;;;;;;;;;26.00;79.80;;;26.39;32.56;102753.03;4994665;28;19914;-75
2023/05/19 06:48:01;;;;;;;;;;;26.40;77.60;;;27.54;32.66;102769.53;4992947;28;19917;-75
2023/05/19 06:50:26;;;;;;;;;;;26.80;80.40;;;26.30;32.45;102750.22;4991973;28;20382;-75
2023/05/19 06:52:52;;;;;;;;;;;27.00;75.80;;;26.58;33.44;102744.28;4985907;28;19917;-75
2023/05/19 06:55:18;;;;;;;;;;;26.90;78.90;;;26.96;33.21;102752.88;4991220;28;19928;-75
2023/05/19 06:57:44;;;;;;;;;;;26.90;77.80;;;27.07;32.40;102760.91;4991310;28;19929;-73
2023/05/19 07:00:13;;;;;;;;;;;27.30;75.00;;;26.97;32.52;102760.81;4989040;28;19932;-73
2023/05/19 07:02:38;;;;;;;;;;;27.40;75.10;;;26.63;32.42;102753.84;4980183;28;19950;-74
2023/05/19 07:05:05;;;;;;;;;;;27.30;74.90;;;26.89;32.44;102765.16;4983592;28;19914;-73
2023/05/19 07:07:33;;;;;;;;;;;27.30;76.20;;;25.82;33.94;102745.94;4979255;28;20287;-73
2023/05/19 07:09:59;;;;;;;;;;;26.80;74.90;;;26.09;32.67;102751.00;4992119;28;19924;-73
2023/05/19 07:12:25;;;;;;;;;;;26.90;74.30;;;27.07;33.76;102760.91;4965541;28;19948;-73
2023/05/19 07:14:51;;;;;;;;;;;27.10;76.70;;;26.97;32.48;102768.09;4990436;28;19922;-73
2023/05/19 07:17:17;;;;;;;;;;;27.20;75.40;;;27.81;32.85;102778.91;4993012;28;19930;-73
2023/05/19 07:19:43;;;;;;;;;;;27.60;77.20;;;26.34;32.11;102759.78;4995952;28;19920;-74
2023/05/19 07:22:09;;;;;;;;;;;27.60;73.40;;;26.31;32.17;102754.66;4983591;28;20568;-74
2023/05/19 07:24:35;;;;;;;;;;;27.60;74.00;;;26.49;32.44;102760.38;4988730;28;19923;-73
2023/05/19 07:27:00;;;;;;;;;;;27.20;74.70;;;26.94;32.75;102774.63;4990149;28;19925;-73
2023/05/19 07:29:26;;;;;;;;;;;27.30;76.20;;;27.17;32.11;102778.06;4991026;28;20004;-73
2023/05/19 07:31:56;;;;;;;;;;;27.60;75.50;;;26.89;32.34;102767.88;4994025;28;19920;-73
2023/05/19 07:34:23;;;;;;;;;;;27.70;74.90;;;27.60;31.87;102773.50;4986757;28;19924;-74
2023/05/19 07:36:51;;;;;;;;;;;28.00;75.60;;;27.64;31.46;102777.66;5007420;28;19926;-73
2023/05/19 07:39:17;;;;;;;;;;;28.30;74.00;;;26.36;31.85;102760.53;4990727;28;19925;-73
2023/05/19 07:41:43;;;;;;;;;;;28.10;72.20;;;25.93;32.85;102754.06;4991239;28;19975;-73
2023/05/19 07:44:09;;;;;;;;;;;27.60;73.30;;;26.78;32.81;102745.34;4991706;28;19914;-73
2023/05/19 07:46:36;;;;;;;;;;;27.50;75.80;;;26.90;32.16;102753.38;4993648;28;19996;-74
2023/05/19 07:49:03;;;;;;;;;;;27.50;74.70;;;26.94;34.02;102742.19;4981744;28;19925;-73
2023/05/19 07:51:28;;;;;;;;;;;27.50;75.50;;;27.13;32.69;102754.13;4981207;28;19918;-74
2023/05/19 07:53:54;;;;;;;;;;;27.40;75.30;;;27.38;32.92;102747.47;4989492;28;19920;-73
2023/05/19 07:56:20;;;;;;;;;;;27.40;76.00;;;28.76;32.21;102758.69;4973380;28;19917;-73
2023/05/19 07:58:46;;;;;;;;;;;27.70;78.70;;;27.84;31.67;102759.69;4991587;28;19925;-73
2023/05/19 08:01:12;;;;;;;;;;;27.70;73.50;;;28.25;31.56;102768.72;4966789;28;20021;-73
2023/05/19 08:03:37;;;;;;;;;;;28.10;74.90;;;28.70;30.82;102767.38;4989689;28;19921;-74
2023/05/19 08:06:03;;;;;;;;;;;28.20;74.80;;;28.30;31.80;102765.59;4991106;28;19985;-74
2023/05/19 08:08:32;;;;;;;;;;;28.00;75.00;;;27.35;32.69;102750.47;4988795;28;19921;-74
2023/05/19 08:11:02;;;;;;;;;;;27.70;74.10;;;27.03;32.09;102751.34;4994762;28;19921;-73
2023/05/19 08:13:28;;;;;;;;;;;27.50;72.60;;;26.26;32.28;102744.19;4987470;28;19917;-74
2023/05/19 08:15:58;;;;;;;;;;;27.10;71.50;;;26.57;32.80;102742.56;4993987;28;20426;-74
2023/05/19 08:18:30;;;;;;;;;;;26.70;75.30;;;26.22;33.00;102731.97;4988630;28;20305;-74
2023/05/19 08:21:05;;;;;;;;;;;26.50;74.30;;;26.26;33.26;102735.25;4988438;28;19961;-74
2023/05/19 08:23:31;;;;;;;;;;;26.30;74.80;;;25.16;33.28;102721.41;4993871;28;20013;-74
2023/05/19 08:25:56;;;;;;;;;;;25.90;73.50;;;25.39;35.10;102716.97;4987506;28;19933;-73
2023/05/19 08:28:22;;;;;;;;;;;25.40;79.00;;;26.04;35.01;102714.56;4993410;28;19984;-73
2023/05/19 08:30:52;;;;;;;;;;;25.50;79.30;;;25.82;34.43;102710.88;4987812;28;20021;-74
2023/05/19 08:33:20;;;;;;;;;;;25.60;77.80;;;24.58;35.55;102685.47;4990639;28;19929;-73
2023/05/19 08:35:49;;;;;;;;;;;25.10;79.10;;;24.54;36.43;102682.16;4997682;28;19956;-74
2023/05/19 08:38:15;;;;;;;;;;;24.60;80.60;;;23.83;35.37;102679.25;4987855;28;19960;-74
2023/05/19 08:40:47;;;;;;;;;;;24.00;77.70;;;22.85;36.72;102657.41;4992971;28;19960;-74
2023/05/19 08:43:15;;;;;;;;;;;23.50;78.90;;;22.58;38.16;102644.00;4995511;28;20000;-74
2023/05/19 08:45:43;;;;;;;;;;;23.10;81.10;;;22.52;38.12;102639.03;4995709;28;19949;-74
2023/05/19 08:48:10;;;;;;;;;;;22.90;80.90;;;22.40;38.62;102640.72;4995978;28;20004;-74
2023/05/19 08:50:42;;;;;;;;;;;22.80;82.50;;;22.67;37.99;102651.44;4993871;28;19925;-74
2023/05/19 08:53:24;;;;;;;;;;;22.70;82.50;;;22.43;37.88;102631.63;4983324;28;19917;-73
2023/05/19 08:56:23;;;;;;;;;;;22.40;82.70;;;21.99;38.22;102616.63;4978732;28;19953;-73
2023/05/19 08:58:50;;;;;;;;;;;22.30;82.90;;;21.82;39.20;102621.22;4985403;28;19921;-74
2023/05/19 09:01:19;;;;;;;;;;;22.10;82.90;;;21.32;38.58;102603.84;4993454;28;20298;-74
2023/05/19 09:03:49;;;;;;;;;;;21.80;80.90;;;21.69;38.23;102602.38;4997905;28;20344;-73
2023/05/19 09:06:15;;;;;;;;;;;21.70;82.60;;;21.01;38.51;102597.69;4999617;28;19917;-76
2023/05/19 09:08:44;;;;;;;;;;;21.40;82.40;;;21.30;39.11;102595.88;4999813;28;19913;-76
2023/05/19 09:11:13;;;;;;;;;;;21.40;84.20;;;21.02;38.60;102591.38;4996943;28;21236;-76
2023/05/19 09:13:42;;;;;;;;;;;21.30;82.40;;;21.64;37.89;102609.00;4976567;28;19924;-74
2023/05/19 09:16:12;;;;;;;;;;;21.50;81.40;;;20.89;37.97;102593.09;4990340;28;19917;-73
2023/05/19 09:18:39;;;;;;;;;;;21.30;81.50;;;20.95;38.17;102590.03;4995292;28;20382;-74
2023/05/19 09:21:06;;;;;;;;;;;21.10;82.00;;;20.68;39.12;102589.88;4996678;28;19929;-75
2023/05/19 09:23:35;;;;;;;;;;;20.90;83.60;;;21.13;39.56;102593.41;4975331;28;19913;-74
2023/05/19 09:26:07;;;;;;;;;;;21.00;84.90;;;21.45;39.21;102593.25;4986994;28;19986;-74
2023/05/19 09:28:37;;;;;;;;;;;21.20;85.00;;;21.67;37.76;102601.63;4971681;28;19921;-74
2023/05/19 09:31:12;;;;;;;;;;;21.50;83.40;;;20.75;37.20;102609.13;4994430;28;19924;-74
2023/05/19 09:33:42;;;;;;;;;;;21.20;79.80;;;20.63;38.48;102587.50;4995401;28;20275;-73
2023/05/19 09:36:09;;;;;;;;;;;21.10;82.30;;;20.55;38.54;102602.25;4978852;28;20337;-74
2023/05/19 09:38:36;;;;;;;;;;;21.00;82.80;;;21.01;37.94;102588.78;4960073;28;19988;-73
2023/05/19 09:41:08;;;;;;;;;;;20.90;82.10;;;21.02;37.56;102607.44;4995380;28;21080;-73
2023/05/19 09:43:37;;;;;;;;;;;20.80;81.40;;;21.12;37.35;102598.84;4985769;28;19992;-74
2023/05/19 09:46:10;;;;;;;;;;;20.90;81.30;;;20.56;38.07;102603.97;4993891;28;20449;-73
2023/05/19 09:48:36;;;;;;;;;;;20.80;81.50;;;20.53;38.95;102588.09;4986114;28;19949;-73
2023/05/19 09:51:08;;;;;;;;;;;20.90;83.10;;;20.33;40.44;102592.81;4995729;28;20305;-75
2023/05/19 09:53:36;;;;;;;;;;;21.00;85.40;;;20.11;40.60;102585.19;4986516;28;19920;-74
2023/05/19 09:56:07;;;;;;;;;;;21.00;84.40;;;20.43;43.30;102609.16;4981382;28;19917;-76
2023/05/19 09:58:34;;;;;;;;;;;21.10;88.30;;;20.57;39.02;102601.22;4994577;28;19940;-74
2023/05/19 10:01:03;;;;;;;;;;;21.00;81.40;;;20.46;40.38;102591.13;4980295;28;19943;-75
2023/05/19 10:03:32;;;;;;;;;;;21.00;82.80;;;19.80;39.58;102580.69;4976614;28;19921;-75
2023/05/19 10:06:07;;;;;;;;;;;20.60;82.30;;;20.08;39.99;102579.97;4997919;28;20286;-74
2023/05/19 10:08:41;;;;;;;;;;;20.70;82.80;;;20.10;39.38;102575.41;4990597;28;20264;-75
2023/05/19 10:11:07;;;;;;;;;;;20.70;82.50;;;20.45;39.61;102586.75;4983032;28;20344;-77
2023/05/19 10:13:37;;;;;;;;;;;20.70;83.60;;;20.36;39.07;102584.59;4978197;28;19913;-77
2023/05/19 10:16:07;;;;;;;;;;;20.60;83.40;;;20.90;39.44;102587.63;4993789;28;19936;-75
2023/05/19 10:18:40;;;;;;;;;;;20.70;84.70;;;20.85;37.56;102588.88;5010393;28;19918;-78
2023/05/19 10:21:09;;;;;;;;;;;20.80;81.50;;;20.24;38.19;102586.19;4989267;28;20330;-77
2023/05/19 10:23:36;;;;;;;;;;;20.70;80.50;;;20.26;38.10;102589.63;4991128;28;19913;-78
2023/05/19 10:26:05;;;;;;;;;;;20.60;81.90;;;20.10;38.50;102594.13;4961127;28;19964;-75
2023/05/19 10:28:37;;;;;;;;;;;20.50;81.90;;;20.26;39.52;102584.28;4992590;28;19921;-74
2023/05/19 10:31:08;;;;;;;;;;;20.50;83.80;;;20.71;38.66;102588.84;4977677;28;19918;-77
2023/05/19 10:33:46;;;;;;;;;;;20.60;82.90;;;20.56;37.83;102591.47;4942480;28;20367;-76
2023/05/19 10:36:29;;;;;;;;;;;20.60;81.20;;;20.46;38.16;102587.59;4990406;28;19917;-77
2023/05/19 10:39:26;;;;;;;;;;;20.70;81.30;;;20.76;37.99;102592.97;4993481;28;19917;-79
2023/05/19 10:42:30;;;;;;;;;;;20.90;80.60;;;20.67;37.92;102588.19;4993053;28;19928;-77
2023/05/19 10:45:11;;;;;;;;;;;20.90;81.30;;;20.35;38.85;102576.69;4960747;28;19914;-77
2023/05/19 10:47:42;;;;;;;;;;;20.80;81.50;;;20.43;38.33;102574.38;4991832;28;19928;-77
2023/05/19 10:50:11;;;;;;;;;;;20.80;81.00;;;20.10;37.44;102575.41;4993900;28;19921;-77
2023/05/19 10:52:40;;;;;;;;;;;20.60;79.20;;;20.11;37.86;102578.94;4967953;28;19949;-78
2023/05/19 10:55:08;;;;;;;;;;;20.40;77.80;;;19.92;38.00;102565.78;4995144;28;19925;-77
2023/05/19 10:57:35;;;;;;;;;;;20.60;80.20;;;19.97;39.07;102561.03;4993040;28;20272;-77
2023/05/19 11:00:25;;;;;;;;;;;20.70;82.90;;;20.02;38.06;102559.81;4991483;28;20004;-76
2023/05/19 11:02:56;;;;;;;;;;;20.80;80.20;;;19.91;38.56;102559.56;4994792;28;19921;-77
2023/05/19 11:05:28;;;;;;;;;;;20.90;80.80;;;19.39;39.96;102547.28;4977788;28;20333;-77
2023/05/19 11:08:01;;;;;;;;;;;20.70;82.30;;;19.14;39.88;102528.22;4997861;28;19914;-77
2023/05/19 11:10:26;;;;;;;;;;;20.40;81.30;;;19.12;39.66;102517.63;4993035;28;19925;-77
2023/05/19 11:13:05;;;;;;;;;;;20.20;82.20;;;19.18;39.74;102524.41;4980561;28;19918;-78
2023/05/19 11:15:44;;;;;;;;;;;20.20;81.50;;;19.42;39.74;102527.56;4987262;28;19958;-76
2023/05/19 11:18:14;;;;;;;;;;;20.40;81.80;;;19.39;39.37;102531.25;4987561;28;19941;-77
2023/05/19 11:20:54;;;;;;;;;;;20.50;81.50;;;19.09;38.77;102533.78;4992993;28;19917;-77